Please disable your adblock and script blockers to view this page.

ICAO: EGLL Country: United Kingdom
Latitude: 51.471146 Longitude: -0.456491
Total Arrivals: 60 Total Departures: 79
Latest Arrival:  BAW4195 (MMMX-EGLL) GeoffreyDe Kergariou Latest Departure:  SDAI04 (EGLL-VIDP) GeoffreyDe Kergariou
Available Weather Information

METAR FOR EGLL (Issued: Tue, October 17th 2017 12:50 PM UTC):
EGLL 171250Z AUTO 23007KT 9999 NCD 14/07 Q1020 NOSIG

Runways

Runway ID Mag Var Hdg Length Elevation Surface ILS Freq ILS Id ILS Slope
09L -1 90° 13160 ft 83 ft Asphalt 110.3 IAA 3
09R -1 91° 12396 ft 83 ft Asphalt 109.5 IBB 3
27L -1 271° 12396 ft 83 ft Asphalt 109.5 ILL 3
27R -1 270° 13160 ft 83 ft Asphalt 110.3 IRR 3

Heathrow




SkyDream Airlines

Start your flying career at SkyDream Airlines today and join a nice and friendly community!

Have fun flying in France and all over the World!

Copyright © 2017 - SkyDream Airlines

AIRAC cycle : 1711 Version : 1 Valid (from/to): 12/OCT/2017 - 08/NOV/2017

Your IP is 162.158.62.43

This page was generated in 0.0006 seconds

Website design by FSX30HD CMS by phpVMS